createdAt,value
2019-03-23T00:02:01.729Z,66.13
2019-03-23T00:04:52.943Z,63.70
2019-03-23T00:07:54.856Z,64.36
2019-03-23T00:10:48.067Z,64.86
2019-03-23T00:13:39.301Z,66.46
2019-03-23T00:16:42.011Z,67.39
2019-03-23T00:19:27.592Z,67.20
2019-03-23T00:22:12.492Z,66.59
2019-03-23T00:27:29.945Z,65.61
2019-03-23T00:30:21.170Z,65.96
2019-03-23T00:33:31.132Z,67.60
2019-03-23T00:36:22.332Z,69.81
2019-03-23T00:39:13.495Z,70.30
2019-03-23T00:42:04.701Z,68.15
2019-03-23T00:45:07.367Z,66.68
2019-03-23T00:47:52.590Z,68.00
2019-03-23T00:50:26.773Z,66.99
2019-03-23T00:53:17.971Z,64.17
2019-03-23T00:56:09.201Z,62.56
2019-03-23T01:01:44.968Z,66.00
2019-03-23T01:04:36.241Z,65.84
2019-03-23T01:13:15.015Z,66.57
2019-03-23T01:16:06.253Z,68.57
2019-03-23T01:24:26.858Z,63.05
2019-03-23T01:27:30.647Z,65.82
2019-03-23T01:30:02.828Z,67.84
2019-03-23T01:35:49.758Z,70.86
2019-03-23T01:38:24.014Z,69.89
2019-03-23T01:41:26.043Z,66.01
2019-03-23T01:44:10.565Z,63.83
2019-03-23T01:46:56.449Z,62.26
2019-03-23T01:49:41.168Z,61.79
2019-03-23T01:52:14.966Z,59.94
2019-03-23T01:58:23.187Z,57.81
2019-03-23T02:00:56.100Z,58.58
2019-03-23T02:06:50.800Z,62.32
2019-03-23T02:18:18.002Z,63.61
2019-03-23T02:21:09.117Z,65.08
2019-03-23T02:24:00.299Z,65.31
2019-03-23T02:27:10.310Z,63.53
2019-03-23T02:30:20.314Z,61.64
2019-03-23T02:33:23.123Z,60.54
2019-03-23T02:39:01.475Z,60.72
2019-03-23T02:42:11.529Z,63.77
2019-03-23T02:45:14.039Z,64.01
2019-03-23T02:47:48.424Z,65.57
2019-03-23T02:50:58.423Z,66.79
2019-03-23T02:54:00.180Z,68.83
2019-03-23T03:02:13.757Z,72.34
2019-03-23T03:10:39.196Z,77.24
2019-03-23T03:16:14.581Z,77.38
2019-03-23T03:19:05.720Z,76.88
2019-03-23T03:21:56.887Z,76.70
2019-03-23T03:24:58.809Z,76.79
2019-03-23T03:30:28.345Z,73.16
2019-03-23T03:33:21.911Z,72.82
2019-03-23T03:36:24.278Z,73.79
2019-03-23T03:44:35.075Z,70.49
2019-03-23T03:50:04.509Z,77.15
2019-03-23T03:52:38.491Z,77.81
2019-03-23T03:55:48.462Z,78.49
2019-03-23T04:07:04.198Z,71.03
2019-03-23T04:09:40.435Z,67.92
2019-03-23T04:12:32.762Z,71.04
2019-03-23T04:15:35.495Z,72.66
2019-03-23T04:18:27.791Z,72.06
2019-03-23T04:24:13.622Z,67.52
2019-03-23T04:29:40.591Z,67.15
2019-03-23T04:32:25.239Z,70.41
2019-03-23T04:40:45.519Z,71.56
2019-03-23T04:46:44.006Z,72.44
2019-03-23T05:01:16.570Z,78.97
2019-03-23T05:04:09.558Z,78.23
2019-03-23T05:12:41.367Z,75.12
2019-03-23T05:15:26.330Z,74.46
2019-03-23T05:18:10.580Z,75.55
2019-03-23T05:21:05.348Z,75.92
2019-03-23T05:23:56.553Z,74.34
2019-03-23T05:32:51.776Z,74.50
2019-03-23T05:35:34.815Z,76.06
2019-03-23T05:40:55.114Z,74.97
2019-03-23T05:46:43.650Z,74.89
2019-03-23T05:49:18.039Z,74.84
2019-03-23T05:54:54.172Z,73.88
2019-03-23T06:00:50.069Z,73.61
2019-03-23T06:04:00.080Z,73.09
2019-03-23T06:07:02.360Z,72.15
2019-03-23T06:09:46.658Z,72.19
2019-03-23T06:12:21.159Z,74.01
2019-03-23T06:18:07.886Z,71.34
2019-03-23T06:20:42.274Z,68.71
2019-03-23T06:23:52.290Z,66.84
2019-03-23T06:35:10.828Z,67.03
2019-03-23T06:37:56.228Z,65.49
2019-03-23T06:40:41.015Z,64.20
2019-03-23T06:43:15.308Z,64.10
2019-03-23T06:46:06.466Z,62.83
2019-03-23T06:51:42.464Z,64.85
2019-03-23T06:54:52.452Z,67.71
2019-03-23T06:57:43.674Z,68.08
2019-03-23T07:00:46.386Z,67.72
2019-03-23T07:03:37.179Z,65.04
2019-03-23T07:12:08.377Z,60.38
2019-03-23T07:15:02.875Z,59.95
2019-03-23T07:18:12.884Z,59.23
2019-03-23T07:21:04.110Z,61.37
2019-03-23T07:24:14.108Z,65.91
2019-03-23T07:30:01.512Z,65.65
2019-03-23T07:32:44.721Z,63.16
2019-03-23T07:35:47.691Z,61.75
2019-03-23T07:38:21.561Z,60.44
2019-03-23T07:41:31.557Z,58.62
2019-03-23T07:47:16.941Z,59.74
2019-03-23T07:52:34.784Z,63.47
2019-03-23T07:55:25.370Z,62.10
2019-03-23T07:58:27.102Z,60.62
2019-03-23T08:00:59.882Z,62.29
2019-03-23T08:06:51.813Z,60.82
2019-03-23T08:12:08.865Z,59.53
2019-03-23T08:18:04.642Z,57.33
2019-03-23T08:21:14.643Z,55.30
2019-03-23T08:24:06.105Z,54.30
2019-03-23T08:35:13.593Z,55.94
2019-03-23T08:38:04.787Z,54.16
2019-03-23T08:40:56.026Z,54.81
2019-03-23T08:43:47.208Z,54.39
2019-03-23T08:46:49.910Z,53.77
2019-03-23T08:49:35.004Z,51.92
2019-03-23T08:52:28.983Z,51.27
2019-03-23T08:55:22.161Z,53.46
2019-03-23T08:58:05.044Z,52.55
2019-03-23T09:06:06.265Z,53.13
2019-03-23T09:09:08.724Z,53.50
2019-03-23T09:11:41.999Z,52.38
2019-03-23T09:14:52.004Z,53.50
2019-03-23T09:17:43.151Z,53.18
2019-03-23T09:26:06.033Z,54.26
2019-03-23T09:28:57.354Z,51.97
2019-03-23T09:31:51.483Z,50.30
2019-03-23T09:34:42.601Z,49.56
2019-03-23T09:40:28.934Z,37.33
2019-03-23T09:43:21.959Z,26.02
2019-03-23T09:46:13.141Z,21.93
2019-03-23T09:49:10.183Z,18.59
2019-03-23T09:54:56.766Z,18.23
2019-03-23T09:57:31.160Z,19.79
2019-03-23T10:00:33.203Z,22.59
2019-03-23T10:03:05.797Z,16.66
2019-03-23T10:08:42.159Z,14.94
2019-03-23T10:11:46.287Z,16.41
2019-03-23T10:17:52.267Z,15.59
2019-03-23T10:20:43.411Z,15.07
2019-03-23T10:23:34.657Z,12.23
2019-03-23T10:26:36.508Z,10.50
2019-03-23T10:29:39.126Z,9.28
2019-03-23T10:32:49.201Z,9.62
2019-03-23T10:35:51.697Z,13.00
2019-03-23T10:38:43.734Z,10.41
2019-03-23T10:41:34.882Z,8.68
2019-03-23T10:44:26.085Z,12.15
2019-03-23T10:47:28.211Z,11.62
2019-03-23T10:50:19.373Z,11.62
2019-03-23T10:53:29.353Z,10.44
2019-03-23T10:56:31.197Z,10.68
2019-03-23T10:59:13.652Z,10.40
2019-03-23T11:01:47.224Z,12.43
2019-03-23T11:04:38.497Z,17.99
2019-03-23T11:07:29.709Z,23.55
2019-03-23T11:13:04.245Z,31.70
2019-03-23T11:15:55.428Z,31.14
2019-03-23T11:21:32.843Z,33.64
2019-03-23T11:24:35.166Z,32.34
2019-03-23T11:27:09.255Z,31.88
2019-03-23T11:35:33.483Z,29.91
2019-03-23T11:38:35.779Z,29.91
2019-03-23T11:43:53.736Z,29.63
2019-03-23T11:46:25.561Z,28.91
2019-03-23T11:52:01.408Z,27.89
2019-03-23T11:54:52.741Z,26.33
2019-03-23T12:00:30.248Z,25.49
2019-03-23T12:06:08.590Z,25.47
2019-03-23T12:09:10.739Z,24.60
2019-03-23T12:11:42.849Z,23.85
2019-03-23T12:14:34.098Z,22.66
2019-03-23T12:17:25.271Z,24.60
2019-03-23T12:20:16.609Z,23.31
2019-03-23T12:23:08.025Z,22.82
2019-03-23T12:25:59.283Z,24.31
2019-03-23T12:28:52.537Z,24.70
2019-03-23T12:34:27.595Z,23.20
2019-03-23T12:37:37.689Z,23.43
2019-03-23T12:43:12.560Z,23.52
2019-03-23T12:46:03.750Z,23.46
2019-03-23T12:49:05.605Z,22.92
2019-03-23T12:51:37.749Z,23.93
2019-03-23T12:54:47.746Z,24.00
2019-03-23T12:57:38.894Z,26.63
2019-03-23T13:00:30.055Z,25.21
2019-03-23T13:03:21.266Z,23.93
2019-03-23T13:06:12.499Z,24.38
2019-03-23T13:14:32.706Z,26.66
2019-03-23T13:17:36.597Z,25.48
2019-03-23T13:23:24.513Z,24.35
2019-03-23T13:25:56.776Z,23.43
2019-03-23T13:28:47.945Z,23.29
2019-03-23T13:31:39.147Z,22.56
2019-03-23T13:34:41.475Z,24.08
2019-03-23T13:37:24.533Z,23.83
2019-03-23T13:40:07.873Z,23.42
2019-03-23T13:42:51.697Z,22.93
2019-03-23T13:48:12.088Z,23.16
2019-03-23T13:53:40.749Z,23.36
2019-03-23T13:56:13.577Z,23.74
2019-03-23T13:59:04.880Z,23.88
2019-03-23T14:02:06.686Z,24.55
2019-03-23T14:07:34.859Z,25.75
2019-03-23T14:10:19.688Z,24.84
2019-03-23T14:12:53.787Z,24.44
2019-03-23T14:15:44.962Z,24.12
2019-03-23T14:24:28.675Z,24.45
2019-03-23T14:33:10.222Z,26.96
2019-03-23T14:50:35.652Z,26.73
2019-03-23T14:53:08.635Z,27.15
2019-03-23T14:56:11.259Z,26.90
2019-03-23T14:59:03.044Z,26.44
2019-03-23T15:02:07.470Z,26.67
2019-03-23T15:07:37.125Z,26.50
2019-03-23T15:10:44.842Z,26.88
2019-03-23T15:13:17.586Z,26.07
2019-03-23T15:16:18.719Z,25.67
2019-03-23T15:18:53.716Z,27.02
2019-03-23T15:27:16.080Z,26.85
2019-03-23T15:30:26.327Z,28.23
2019-03-23T15:33:19.846Z,28.07
2019-03-23T15:36:21.908Z,28.40
2019-03-23T15:42:04.507Z,28.71
2019-03-23T15:45:06.276Z,27.98
2019-03-23T15:47:40.074Z,28.71
2019-03-23T15:50:31.366Z,29.00
2019-03-23T15:53:34.108Z,28.97
2019-03-23T15:56:06.471Z,29.20
2019-03-23T15:59:09.100Z,29.12
2019-03-23T16:04:30.631Z,29.43
2019-03-23T16:07:29.310Z,29.68
2019-03-23T16:10:24.344Z,29.97
2019-03-23T16:15:59.104Z,29.98
2019-03-23T16:18:50.671Z,30.02
2019-03-23T16:21:53.406Z,30.21
2019-03-23T16:24:26.894Z,30.75
2019-03-23T16:27:18.242Z,30.94
2019-03-23T16:30:21.354Z,30.64
2019-03-23T16:32:55.762Z,31.00
2019-03-23T16:35:58.226Z,31.42
2019-03-23T16:39:03.607Z,31.95
2019-03-23T16:44:39.797Z,32.85
2019-03-23T16:47:31.219Z,32.69
2019-03-23T16:50:22.676Z,33.28
2019-03-23T16:55:57.825Z,33.49
2019-03-23T16:58:49.421Z,33.46
2019-03-23T17:01:41.026Z,33.50
2019-03-23T17:04:32.321Z,33.52
2019-03-23T17:07:42.528Z,33.91
2019-03-23T17:10:14.597Z,34.27
2019-03-23T17:13:17.069Z,34.28
2019-03-23T17:15:52.307Z,34.49
2019-03-23T17:21:28.065Z,34.51
2019-03-23T17:24:30.368Z,34.85
2019-03-23T17:27:24.052Z,34.65
2019-03-23T17:33:30.683Z,35.16
2019-03-23T17:36:17.237Z,35.46
2019-03-23T17:39:01.274Z,35.17
2019-03-23T17:44:20.554Z,35.41
2019-03-23T17:47:23.585Z,35.42
2019-03-23T17:49:58.220Z,35.44
2019-03-23T17:52:49.376Z,36.49
2019-03-23T17:55:52.135Z,38.65
2019-03-23T17:58:45.203Z,40.14
2019-03-23T18:01:47.495Z,40.72
2019-03-23T18:04:21.900Z,41.21
2019-03-23T18:07:14.355Z,40.48
2019-03-23T18:13:16.419Z,44.35
2019-03-23T18:15:58.392Z,44.44
2019-03-23T18:18:49.856Z,44.39
2019-03-23T18:21:52.104Z,45.62
2019-03-23T18:24:37.530Z,46.08
2019-03-23T18:27:11.318Z,46.37
2019-03-23T18:30:02.473Z,45.73
2019-03-23T18:32:53.815Z,46.14
2019-03-23T18:35:45.057Z,46.34
2019-03-23T18:38:46.985Z,46.56
2019-03-23T18:41:20.485Z,43.68
2019-03-23T18:47:18.045Z,44.64
2019-03-23T18:50:09.230Z,47.35
2019-03-23T18:53:00.448Z,48.02
2019-03-23T18:55:53.889Z,48.74
2019-03-23T19:01:55.632Z,46.70
2019-03-23T19:07:32.610Z,49.20
2019-03-23T19:10:35.436Z,49.65
2019-03-23T19:13:19.434Z,50.75
2019-03-23T19:15:53.418Z,51.80
2019-03-23T19:18:55.929Z,52.80
2019-03-23T19:24:32.802Z,52.87
2019-03-23T19:27:34.802Z,53.53
2019-03-23T19:36:10.289Z,50.95
2019-03-23T19:41:27.814Z,51.82
2019-03-23T19:44:19.443Z,53.24
2019-03-23T19:47:11.140Z,54.05
2019-03-23T19:50:02.294Z,54.25
2019-03-23T19:52:53.492Z,53.23
2019-03-23T19:58:47.288Z,54.29
2019-03-23T20:04:23.681Z,53.80
2019-03-23T20:09:58.672Z,51.80
2019-03-23T20:12:50.017Z,52.30
2019-03-23T20:15:41.182Z,53.76
2019-03-23T20:18:43.176Z,55.61
2019-03-23T20:21:16.726Z,53.61
2019-03-23T20:24:26.811Z,52.02
2019-03-23T20:27:28.709Z,51.43
2019-03-23T20:30:03.492Z,50.34
2019-03-23T20:32:54.698Z,51.21
2019-03-23T20:35:56.514Z,51.98
2019-03-23T20:38:48.634Z,52.58
2019-03-23T20:41:39.838Z,53.05
2019-03-23T20:44:31.001Z,52.52
2019-03-23T20:47:22.149Z,53.25
2019-03-23T20:59:10.017Z,53.04
2019-03-23T21:04:46.870Z,58.44
2019-03-23T21:08:08.502Z,59.39
2019-03-23T21:10:53.403Z,56.31
2019-03-23T21:13:45.733Z,54.80
2019-03-23T21:19:31.819Z,59.15
2019-03-23T21:22:04.952Z,59.52
2019-03-23T21:25:07.281Z,55.88
2019-03-23T21:27:41.289Z,55.86
2019-03-23T21:30:32.575Z,54.73
2019-03-23T21:36:07.205Z,55.61
2019-03-23T21:38:57.805Z,56.26
2019-03-23T21:41:49.033Z,56.45
2019-03-23T21:47:24.612Z,55.15
2019-03-23T21:53:22.895Z,56.19
2019-03-23T21:56:14.024Z,57.09
2019-03-23T21:59:15.903Z,58.30
2019-03-23T22:10:21.042Z,60.00
2019-03-23T22:13:36.068Z,58.64
2019-03-23T22:16:21.527Z,56.28
2019-03-23T22:18:54.032Z,55.80
2019-03-23T22:24:40.861Z,55.98
2019-03-23T22:30:12.369Z,54.30
2019-03-23T22:32:54.837Z,55.39
2019-03-23T22:35:47.027Z,58.24
2019-03-23T22:41:41.045Z,60.22
2019-03-23T22:44:52.730Z,59.47
2019-03-23T22:47:34.165Z,58.75
2019-03-23T22:50:36.700Z,57.39
2019-03-23T22:59:15.587Z,52.47
2019-03-23T23:04:42.387Z,55.17
2019-03-23T23:07:52.384Z,53.95
2019-03-23T23:10:54.073Z,52.57
2019-03-23T23:13:26.888Z,53.19
2019-03-23T23:16:18.215Z,55.24
2019-03-23T23:19:09.484Z,57.76
2019-03-23T23:22:00.738Z,58.63
2019-03-23T23:25:03.075Z,58.08
2019-03-23T23:27:35.549Z,54.78
2019-03-23T23:30:26.828Z,53.80
2019-03-23T23:33:18.107Z,54.81
2019-03-23T23:36:09.314Z,52.91
2019-03-23T23:39:11.750Z,51.69
2019-03-23T23:44:31.593Z,51.08
2019-03-23T23:47:22.847Z,50.79
2019-03-23T23:53:19.696Z,51.36
2019-03-23T23:56:11.137Z,51.61
